createdAt,value
2017-11-27T00:00:27.993Z,3.92
2017-11-27T00:02:54.841Z,3.80
2017-11-27T00:05:21.615Z,3.80
2017-11-27T00:07:48.468Z,3.72
2017-11-27T00:10:15.277Z,4.00
2017-11-27T00:12:42.059Z,3.70
2017-11-27T00:15:08.879Z,4.30
2017-11-27T00:17:36.001Z,3.80
2017-11-27T00:20:02.779Z,3.62
2017-11-27T00:22:35.404Z,3.73
2017-11-27T00:25:02.263Z,3.53
2017-11-27T00:27:29.049Z,4.00
2017-11-27T00:29:55.909Z,3.40
2017-11-27T00:32:22.732Z,3.50
2017-11-27T00:34:49.553Z,3.80
2017-11-27T00:37:16.388Z,3.70
2017-11-27T00:39:43.188Z,3.80
2017-11-27T00:42:09.975Z,3.90
2017-11-27T00:44:36.817Z,3.80
2017-11-27T00:47:03.627Z,3.65
2017-11-27T00:49:30.448Z,3.40
2017-11-27T00:51:57.259Z,4.18
2017-11-27T00:54:24.107Z,4.00
2017-11-27T00:56:50.916Z,3.80
2017-11-27T00:59:17.757Z,3.95
2017-11-27T01:01:44.593Z,4.32
2017-11-27T01:04:11.384Z,4.10
2017-11-27T01:06:38.228Z,4.00
2017-11-27T01:09:05.027Z,4.17
2017-11-27T01:11:31.845Z,4.20
2017-11-27T01:13:58.928Z,4.60
2017-11-27T01:16:25.734Z,4.00
2017-11-27T01:18:52.522Z,4.30
2017-11-27T01:21:19.327Z,3.97
2017-11-27T01:23:46.401Z,4.30
2017-11-27T01:26:13.447Z,3.90
2017-11-27T01:28:40.251Z,4.30
2017-11-27T01:31:07.072Z,3.75
2017-11-27T01:33:33.896Z,3.42
2017-11-27T01:36:00.748Z,4.07
2017-11-27T01:38:27.601Z,3.90
2017-11-27T01:40:54.386Z,4.20
2017-11-27T01:43:21.244Z,4.30
2017-11-27T01:45:48.392Z,4.47
2017-11-27T01:48:15.183Z,3.92
2017-11-27T01:50:42.031Z,3.97
2017-11-27T01:53:08.934Z,4.62
2017-11-27T01:55:35.757Z,3.90
2017-11-27T01:58:02.617Z,4.10
2017-11-27T02:00:29.462Z,4.10
2017-11-27T02:02:56.301Z,4.27
2017-11-27T02:05:23.107Z,3.90
2017-11-27T02:07:50.184Z,4.40
2017-11-27T02:10:16.982Z,4.17
2017-11-27T02:12:43.844Z,4.20
2017-11-27T02:15:10.657Z,4.03
2017-11-27T02:17:37.443Z,3.95
2017-11-27T02:20:04.264Z,4.35
2017-11-27T02:22:31.055Z,4.70
2017-11-27T02:24:57.859Z,4.82
2017-11-27T02:27:24.700Z,4.60
2017-11-27T02:29:51.511Z,4.65
2017-11-27T02:32:18.615Z,4.87
2017-11-27T02:34:45.458Z,5.20
2017-11-27T02:37:12.276Z,5.20
2017-11-27T02:39:39.060Z,5.53
2017-11-27T02:42:05.878Z,5.20
2017-11-27T02:44:32.935Z,5.32
2017-11-27T02:46:59.796Z,5.17
2017-11-27T02:49:26.929Z,5.50
2017-11-27T02:51:54.181Z,5.60
2017-11-27T02:54:20.975Z,5.40
2017-11-27T02:56:47.783Z,5.32
2017-11-27T02:59:14.567Z,5.68
2017-11-27T03:01:41.400Z,5.78
2017-11-27T03:04:08.241Z,5.30
2017-11-27T03:06:35.114Z,5.43
2017-11-27T03:09:01.893Z,5.50
2017-11-27T03:11:28.757Z,5.70
2017-11-27T03:13:55.564Z,5.53
2017-11-27T03:16:22.397Z,6.00
2017-11-27T03:18:49.244Z,6.05
2017-11-27T03:21:16.030Z,5.05
2017-11-27T03:23:42.852Z,5.95
2017-11-27T03:26:09.691Z,6.50
2017-11-27T03:28:36.487Z,5.80
2017-11-27T03:31:03.277Z,5.80
2017-11-27T03:33:30.409Z,6.33
2017-11-27T03:35:57.227Z,6.32
2017-11-27T03:38:24.007Z,6.62
2017-11-27T03:40:50.848Z,6.50
2017-11-27T03:43:17.654Z,6.10
2017-11-27T03:45:44.659Z,6.82
2017-11-27T03:48:11.505Z,6.43
2017-11-27T03:50:38.284Z,7.00
2017-11-27T03:53:05.109Z,6.85
2017-11-27T03:55:31.940Z,7.22
2017-11-27T03:57:58.715Z,6.93
2017-11-27T04:00:25.546Z,6.90
2017-11-27T04:02:52.380Z,6.70
2017-11-27T04:05:19.477Z,6.80
2017-11-27T04:07:46.293Z,7.07
2017-11-27T04:10:13.132Z,7.10
2017-11-27T04:12:40.209Z,7.70
2017-11-27T04:15:07.010Z,7.40
2017-11-27T04:17:34.094Z,7.80
2017-11-27T04:20:00.959Z,7.50
2017-11-27T04:22:27.802Z,7.50
2017-11-27T04:24:54.611Z,7.28
2017-11-27T04:27:21.436Z,7.60
2017-11-27T04:29:48.253Z,7.68
2017-11-27T04:32:15.088Z,8.10
2017-11-27T04:34:41.925Z,7.80
2017-11-27T04:37:08.772Z,7.72
2017-11-27T04:39:35.656Z,7.72
2017-11-27T04:42:02.444Z,8.23
2017-11-27T04:44:29.235Z,8.27
2017-11-27T04:46:56.031Z,8.60
2017-11-27T04:49:22.873Z,8.00
2017-11-27T04:51:49.713Z,8.70
2017-11-27T04:54:16.557Z,9.00
2017-11-27T04:56:43.403Z,9.55
2017-11-27T04:59:10.532Z,9.15
2017-11-27T05:01:37.371Z,9.30
2017-11-27T05:04:04.160Z,9.82
2017-11-27T05:06:30.952Z,10.20
2017-11-27T05:08:57.783Z,10.15
2017-11-27T05:11:24.616Z,10.80
2017-11-27T05:13:51.413Z,10.65
2017-11-27T05:16:18.230Z,11.00
2017-11-27T05:18:45.053Z,11.38
2017-11-27T05:21:12.123Z,11.20
2017-11-27T05:23:38.949Z,11.30
2017-11-27T05:26:05.781Z,12.27
2017-11-27T05:28:32.571Z,12.00
2017-11-27T05:30:59.395Z,12.65
2017-11-27T05:33:26.544Z,13.43
2017-11-27T05:35:53.590Z,13.38
2017-11-27T05:38:20.449Z,15.60
2017-11-27T05:40:47.244Z,13.77
2017-11-27T05:43:14.323Z,13.10
2017-11-27T05:45:41.140Z,12.90
2017-11-27T05:48:07.977Z,13.60
2017-11-27T05:50:34.801Z,13.48
2017-11-27T05:53:01.624Z,13.52
2017-11-27T05:55:28.435Z,13.02
2017-11-27T05:57:55.223Z,13.48
2017-11-27T06:00:22.051Z,12.98
2017-11-27T06:02:48.851Z,14.45
2017-11-27T06:05:15.686Z,13.70
2017-11-27T06:07:42.498Z,14.00
2017-11-27T06:10:09.608Z,14.60
2017-11-27T06:12:36.397Z,14.30
2017-11-27T06:15:03.500Z,13.80
2017-11-27T06:17:30.345Z,13.30
2017-11-27T06:19:57.152Z,14.13
2017-11-27T06:22:23.975Z,13.55
2017-11-27T06:24:50.799Z,14.10
2017-11-27T06:27:17.616Z,13.18
2017-11-27T06:29:44.460Z,13.27
2017-11-27T06:32:11.253Z,14.00
2017-11-27T06:34:38.312Z,13.70
2017-11-27T06:37:05.162Z,13.43
2017-11-27T06:39:31.980Z,14.13
2017-11-27T06:41:58.801Z,13.60
2017-11-27T06:44:25.644Z,13.20
2017-11-27T06:46:52.430Z,13.68
2017-11-27T06:49:19.228Z,14.20
2017-11-27T06:51:46.349Z,13.15
2017-11-27T06:54:13.165Z,13.62
2017-11-27T06:56:40.015Z,12.98
2017-11-27T06:59:06.852Z,12.93
2017-11-27T07:01:33.684Z,13.27
2017-11-27T07:04:00.745Z,13.55
2017-11-27T07:06:27.581Z,12.50
2017-11-27T07:08:54.401Z,12.52
2017-11-27T07:11:21.233Z,12.60
2017-11-27T07:13:48.292Z,12.60
2017-11-27T07:16:15.074Z,12.20
2017-11-27T07:18:41.916Z,12.23
2017-11-27T07:21:08.737Z,13.57
2017-11-27T07:23:35.542Z,12.05
2017-11-27T07:26:02.336Z,12.75
2017-11-27T07:28:29.188Z,11.80
2017-11-27T07:30:56.018Z,11.50
2017-11-27T07:33:22.799Z,11.93
2017-11-27T07:35:49.620Z,11.60
2017-11-27T07:38:16.411Z,11.10
2017-11-27T07:40:43.211Z,11.40
2017-11-27T07:43:10.026Z,11.23
2017-11-27T07:45:36.819Z,11.48
2017-11-27T07:48:03.653Z,11.90
2017-11-27T07:50:30.471Z,11.10
2017-11-27T07:52:57.283Z,10.27
2017-11-27T07:55:24.106Z,11.93
2017-11-27T07:57:51.215Z,10.40
2017-11-27T08:00:18.011Z,10.32
2017-11-27T08:02:44.840Z,11.73
2017-11-27T08:05:11.663Z,12.30
2017-11-27T08:07:38.484Z,10.90
2017-11-27T08:10:05.307Z,10.57
2017-11-27T08:12:32.120Z,10.50
2017-11-27T08:14:58.924Z,10.30
2017-11-27T08:17:25.768Z,10.00
2017-11-27T08:19:52.612Z,10.45
2017-11-27T08:22:19.431Z,10.35
2017-11-27T08:24:46.219Z,9.68
2017-11-27T08:27:13.072Z,10.05
2017-11-27T08:29:39.867Z,9.70
2017-11-27T08:32:06.685Z,9.60
2017-11-27T08:34:33.499Z,10.38
2017-11-27T08:37:00.295Z,9.90
2017-11-27T08:39:27.115Z,9.43
2017-11-27T08:41:53.958Z,9.50
2017-11-27T08:44:20.737Z,9.77
2017-11-27T08:46:47.605Z,9.98
2017-11-27T08:49:14.710Z,9.93
2017-11-27T08:51:41.525Z,9.47
2017-11-27T08:54:08.311Z,9.88
2017-11-27T08:56:35.157Z,10.10
2017-11-27T08:59:01.951Z,10.00
2017-11-27T09:01:28.747Z,9.48
2017-11-27T09:03:55.616Z,9.80
2017-11-27T09:06:22.460Z,9.60
2017-11-27T09:08:49.559Z,10.43
2017-11-27T09:11:16.413Z,10.35
2017-11-27T09:13:43.240Z,10.60
2017-11-27T09:16:10.020Z,9.80
2017-11-27T09:18:36.878Z,10.02
2017-11-27T09:21:03.675Z,9.90
2017-11-27T09:23:30.485Z,9.82
2017-11-27T09:25:57.328Z,10.33
2017-11-27T09:28:24.114Z,9.98
2017-11-27T09:30:50.948Z,10.70
2017-11-27T09:33:17.811Z,10.50
2017-11-27T09:35:44.935Z,10.23
2017-11-27T09:38:11.727Z,11.00
2017-11-27T09:40:38.599Z,10.45
2017-11-27T09:43:05.390Z,10.65
2017-11-27T09:45:32.225Z,10.32
2017-11-27T09:47:59.060Z,10.93
2017-11-27T09:50:25.905Z,11.05
2017-11-27T09:52:52.707Z,10.25
2017-11-27T09:55:19.529Z,10.40
2017-11-27T09:57:46.351Z,10.53
2017-11-27T10:00:16.068Z,10.73
2017-11-27T10:02:43.180Z,11.25
2017-11-27T10:05:10.008Z,11.02
2017-11-27T10:07:36.833Z,10.23
2017-11-27T10:10:03.647Z,10.60
2017-11-27T10:12:30.441Z,10.00
2017-11-27T10:14:57.271Z,10.30
2017-11-27T10:17:24.111Z,10.00
2017-11-27T10:19:50.895Z,9.60
2017-11-27T10:22:17.713Z,9.35
2017-11-27T10:24:44.552Z,9.43
2017-11-27T10:27:11.368Z,9.57
2017-11-27T10:29:38.218Z,8.35
2017-11-27T10:32:05.020Z,8.90
2017-11-27T10:34:31.815Z,8.20
2017-11-27T10:36:58.656Z,8.30
2017-11-27T10:39:25.459Z,8.63
2017-11-27T10:41:52.244Z,7.80
2017-11-27T10:44:19.031Z,8.57
2017-11-27T10:46:45.895Z,7.30
2017-11-27T10:49:12.679Z,8.37
2017-11-27T10:51:39.504Z,7.60
2017-11-27T10:54:06.322Z,7.80
2017-11-27T10:56:33.116Z,7.80
2017-11-27T10:58:59.915Z,7.97
2017-11-27T11:01:26.731Z,8.30
2017-11-27T11:03:53.535Z,8.00
2017-11-27T11:06:20.352Z,7.40
2017-11-27T11:08:47.171Z,7.80
2017-11-27T11:11:13.977Z,7.90
2017-11-27T11:13:40.792Z,8.05
2017-11-27T11:16:07.636Z,7.32
2017-11-27T11:18:34.471Z,6.70
2017-11-27T11:21:01.544Z,7.47
2017-11-27T11:23:28.409Z,7.25
2017-11-27T11:25:55.307Z,6.87
2017-11-27T11:28:22.091Z,6.47
2017-11-27T11:30:48.941Z,6.80
2017-11-27T11:33:16.072Z,6.70
2017-11-27T11:35:42.883Z,6.47
2017-11-27T11:38:09.774Z,5.90
2017-11-27T11:40:36.585Z,6.30
2017-11-27T11:43:03.393Z,6.93
2017-11-27T11:45:30.223Z,5.80
2017-11-27T11:47:57.019Z,5.60
2017-11-27T11:50:23.802Z,6.00
2017-11-27T11:52:50.627Z,5.60
2017-11-27T11:55:17.439Z,5.45
2017-11-27T11:57:44.505Z,5.30
2017-11-27T12:00:11.352Z,5.50
2017-11-27T12:02:38.192Z,6.90
2017-11-27T12:05:05.017Z,7.20
2017-11-27T12:07:31.830Z,5.53
2017-11-27T12:09:58.624Z,5.40
2017-11-27T12:12:25.444Z,5.90
2017-11-27T12:14:52.259Z,5.30
2017-11-27T12:17:19.051Z,4.90
2017-11-27T12:19:45.839Z,4.95
2017-11-27T12:22:12.684Z,5.00
2017-11-27T12:24:39.527Z,5.20
2017-11-27T12:27:06.353Z,5.03
2017-11-27T12:29:33.164Z,5.80
2017-11-27T12:31:59.993Z,5.40
2017-11-27T12:34:26.776Z,4.90
2017-11-27T12:36:53.625Z,4.60
2017-11-27T12:39:20.433Z,4.00
2017-11-27T12:41:47.256Z,4.43
2017-11-27T12:44:14.087Z,4.40
2017-11-27T12:46:40.926Z,4.00
2017-11-27T12:49:07.703Z,4.80
2017-11-27T12:51:34.511Z,4.20
2017-11-27T12:54:01.340Z,4.50
2017-11-27T12:56:28.170Z,4.10
2017-11-27T12:58:55.046Z,4.40
2017-11-27T13:01:21.839Z,4.32
2017-11-27T13:03:48.661Z,4.62
2017-11-27T13:06:15.463Z,4.40
2017-11-27T13:08:42.295Z,4.30
2017-11-27T13:11:09.079Z,3.93
2017-11-27T13:13:35.927Z,3.83
2017-11-27T13:16:02.722Z,4.10
2017-11-27T13:18:29.510Z,3.35
2017-11-27T13:20:56.350Z,3.92
2017-11-27T13:23:23.164Z,3.50
2017-11-27T13:25:49.968Z,4.00
2017-11-27T13:28:16.778Z,3.30
2017-11-27T13:30:43.562Z,3.10
2017-11-27T13:33:10.678Z,3.33
2017-11-27T13:35:37.479Z,3.17
2017-11-27T13:38:04.263Z,3.60
2017-11-27T13:40:31.049Z,2.90
2017-11-27T13:42:57.889Z,2.87
2017-11-27T13:45:24.709Z,2.90
2017-11-27T13:47:51.526Z,3.12
2017-11-27T13:50:18.325Z,3.50
2017-11-27T13:52:45.154Z,2.72
2017-11-27T13:55:11.960Z,3.20
2017-11-27T13:57:38.785Z,3.28
2017-11-27T14:00:05.613Z,2.78
2017-11-27T14:02:32.438Z,3.00
2017-11-27T14:04:59.259Z,3.20
2017-11-27T14:07:26.049Z,2.83
2017-11-27T14:09:52.862Z,2.62
2017-11-27T14:12:19.680Z,2.93
2017-11-27T14:14:46.493Z,3.00
2017-11-27T14:17:13.317Z,2.87
2017-11-27T14:19:40.149Z,2.90
2017-11-27T14:22:06.958Z,2.65
2017-11-27T14:24:33.735Z,3.10
2017-11-27T14:27:00.804Z,3.05
2017-11-27T14:29:27.621Z,3.65
2017-11-27T14:31:54.415Z,3.08
2017-11-27T14:34:21.244Z,2.95
2017-11-27T14:36:48.065Z,3.45
2017-11-27T14:39:15.756Z,3.60
2017-11-27T14:41:42.625Z,3.58
2017-11-27T14:44:09.433Z,3.90
2017-11-27T14:46:36.310Z,3.80
2017-11-27T14:49:03.166Z,3.60
2017-11-27T14:51:30.063Z,3.80
2017-11-27T14:53:56.847Z,3.93
2017-11-27T14:56:23.693Z,3.20
2017-11-27T14:58:50.508Z,3.60
2017-11-27T15:01:17.341Z,4.50
2017-11-27T15:03:44.199Z,4.20
2017-11-27T15:06:11.024Z,3.60
2017-11-27T15:08:37.847Z,3.40
2017-11-27T15:11:04.715Z,4.12
2017-11-27T15:13:31.541Z,3.92
2017-11-27T15:15:58.375Z,3.72
2017-11-27T15:18:25.237Z,3.80
2017-11-27T15:20:52.062Z,3.60
2017-11-27T15:23:18.896Z,3.70
2017-11-27T15:25:45.966Z,3.95
2017-11-27T15:28:12.812Z,4.40
2017-11-27T15:30:39.648Z,4.20
2017-11-27T15:33:06.485Z,4.55
2017-11-27T15:35:33.280Z,4.20
2017-11-27T15:38:00.120Z,4.10
2017-11-27T15:40:27.243Z,4.20
2017-11-27T15:42:54.068Z,4.60
2017-11-27T15:45:20.906Z,4.22
2017-11-27T15:47:47.769Z,4.25
2017-11-27T15:50:14.617Z,4.60
2017-11-27T15:52:41.461Z,4.30
2017-11-27T15:55:08.304Z,4.60
2017-11-27T15:57:35.133Z,4.35
2017-11-27T16:00:01.967Z,5.70
2017-11-27T16:02:28.793Z,5.53
2017-11-27T16:04:55.602Z,4.55
2017-11-27T16:07:22.469Z,4.80
2017-11-27T16:09:49.368Z,4.35
2017-11-27T16:12:16.212Z,4.70
2017-11-27T16:14:43.015Z,5.18
2017-11-27T16:17:09.912Z,4.78
2017-11-27T16:19:36.704Z,5.60
2017-11-27T16:22:03.549Z,5.53
2017-11-27T16:24:30.409Z,5.60
2017-11-27T16:26:57.212Z,5.60
2017-11-27T16:29:24.049Z,5.70
2017-11-27T16:31:50.871Z,6.00
2017-11-27T16:34:17.671Z,5.43
2017-11-27T16:36:44.484Z,6.00
2017-11-27T16:39:11.315Z,5.60
2017-11-27T16:41:38.148Z,6.05
2017-11-27T16:44:05.060Z,6.10
2017-11-27T16:46:31.908Z,5.30
2017-11-27T16:48:58.756Z,5.95
2017-11-27T16:51:25.890Z,5.75
2017-11-27T16:53:52.723Z,6.28
2017-11-27T16:56:19.563Z,5.78
2017-11-27T16:58:46.428Z,5.75
2017-11-27T17:01:13.272Z,6.00
2017-11-27T17:03:40.089Z,6.50
2017-11-27T17:06:07.253Z,6.20
2017-11-27T17:08:34.124Z,5.90
2017-11-27T17:11:00.932Z,5.60
2017-11-27T17:13:28.004Z,6.12
2017-11-27T17:15:54.864Z,5.50
2017-11-27T17:18:21.666Z,5.97
2017-11-27T17:20:48.523Z,7.00
2017-11-27T17:23:15.737Z,6.20
2017-11-27T17:25:42.568Z,5.70
2017-11-27T17:28:09.367Z,5.90
2017-11-27T17:30:36.216Z,5.90
2017-11-27T17:33:03.068Z,6.20
2017-11-27T17:35:29.898Z,5.50
2017-11-27T17:37:56.769Z,5.10
2017-11-27T17:40:23.586Z,6.60
2017-11-27T17:42:50.721Z,5.43
2017-11-27T17:45:17.873Z,5.50
2017-11-27T17:47:44.664Z,5.60
2017-11-27T17:50:11.515Z,5.68
2017-11-27T17:52:38.348Z,5.50
2017-11-27T17:55:05.152Z,6.00
2017-11-27T17:57:31.974Z,5.78
2017-11-27T17:59:58.834Z,5.60
2017-11-27T18:02:25.688Z,5.90
2017-11-27T18:04:52.551Z,6.07
2017-11-27T18:07:19.359Z,6.95
2017-11-27T18:09:46.201Z,6.25
2017-11-27T18:12:13.006Z,6.12
2017-11-27T18:14:39.832Z,6.50
2017-11-27T18:17:06.669Z,6.63
2017-11-27T18:19:33.771Z,7.00
2017-11-27T18:22:00.599Z,6.37
2017-11-27T18:24:27.428Z,7.00
2017-11-27T18:26:54.270Z,7.20
2017-11-27T18:29:21.136Z,6.57
2017-11-27T18:31:47.974Z,7.00
2017-11-27T18:34:14.793Z,6.68
2017-11-27T18:36:41.616Z,6.70
2017-11-27T18:39:08.469Z,6.93
2017-11-27T18:41:35.300Z,7.05
2017-11-27T18:44:02.427Z,6.53
2017-11-27T18:46:29.249Z,6.40
2017-11-27T18:48:56.070Z,6.70
2017-11-27T18:51:23.020Z,6.57
2017-11-27T18:53:49.835Z,6.47
2017-11-27T18:56:16.670Z,6.95
2017-11-27T18:58:43.544Z,6.50
2017-11-27T19:01:10.472Z,7.07
2017-11-27T19:03:37.308Z,6.62
2017-11-27T19:06:04.169Z,6.50
2017-11-27T19:08:31.004Z,6.60
2017-11-27T19:10:57.869Z,6.90
2017-11-27T19:13:24.730Z,7.10
2017-11-27T19:15:51.531Z,7.00
2017-11-27T19:18:18.623Z,6.60
2017-11-27T19:20:46.344Z,6.90
2017-11-27T19:23:13.127Z,6.50
2017-11-27T19:25:39.952Z,6.70
2017-11-27T19:28:06.779Z,6.55
2017-11-27T19:30:33.653Z,7.22
2017-11-27T19:33:00.488Z,7.00
2017-11-27T19:35:27.311Z,6.50
2017-11-27T19:37:54.115Z,6.60
2017-11-27T19:40:21.235Z,6.10
2017-11-27T19:42:48.076Z,5.95
2017-11-27T19:45:14.918Z,6.80
2017-11-27T19:47:41.721Z,6.53
2017-11-27T19:50:08.571Z,6.32
2017-11-27T19:52:35.420Z,6.90
2017-11-27T19:55:02.265Z,6.50
2017-11-27T19:57:29.079Z,6.50
2017-11-27T19:59:55.924Z,6.60
2017-11-27T20:02:22.772Z,6.87
2017-11-27T20:04:49.878Z,6.30
2017-11-27T20:07:16.750Z,6.90
2017-11-27T20:09:43.565Z,6.68
2017-11-27T20:12:10.377Z,6.90
2017-11-27T20:14:37.176Z,7.00
2017-11-27T20:17:04.025Z,7.00
2017-11-27T20:19:30.884Z,7.50
2017-11-27T20:21:57.750Z,7.60
2017-11-27T20:24:24.584Z,8.63
2017-11-27T20:26:51.473Z,8.70
2017-11-27T20:29:18.298Z,8.98
2017-11-27T20:31:45.129Z,8.60
2017-11-27T20:34:11.968Z,9.90
2017-11-27T20:36:38.786Z,9.17
2017-11-27T20:39:05.629Z,9.13
2017-11-27T20:41:32.455Z,9.57
2017-11-27T20:43:59.586Z,9.57
2017-11-27T20:46:26.421Z,9.60
2017-11-27T20:48:53.263Z,10.10
2017-11-27T20:51:20.074Z,9.90
2017-11-27T20:53:46.891Z,10.20
2017-11-27T20:56:13.748Z,10.73
2017-11-27T20:58:40.576Z,10.27
2017-11-27T21:01:07.375Z,11.20
2017-11-27T21:03:34.222Z,10.80
2017-11-27T21:06:01.289Z,10.70
2017-11-27T21:08:28.161Z,11.18
2017-11-27T21:10:55.257Z,11.50
2017-11-27T21:13:22.092Z,11.10
2017-11-27T21:15:48.915Z,10.50
2017-11-27T21:18:15.736Z,11.50
2017-11-27T21:20:42.585Z,10.70
2017-11-27T21:23:09.380Z,11.00
2017-11-27T21:25:36.257Z,12.02
2017-11-27T21:28:03.078Z,10.80
2017-11-27T21:30:29.875Z,10.20
2017-11-27T21:32:56.715Z,10.65
2017-11-27T21:35:23.532Z,11.35
2017-11-27T21:37:50.332Z,11.00
2017-11-27T21:40:17.196Z,10.65
2017-11-27T21:42:43.988Z,11.70
2017-11-27T21:45:10.837Z,11.45
2017-11-27T21:47:38.007Z,10.98
2017-11-27T21:50:05.049Z,11.10
2017-11-27T21:52:31.912Z,11.45
2017-11-27T21:54:58.755Z,10.10
2017-11-27T21:57:25.889Z,9.65
2017-11-27T21:59:52.691Z,9.90
2017-11-27T22:02:19.552Z,8.90
2017-11-27T22:04:46.392Z,7.75
2017-11-27T22:07:13.198Z,7.25
2017-11-27T22:09:40.038Z,7.50
2017-11-27T22:12:06.892Z,6.40
2017-11-27T22:14:33.724Z,5.57
2017-11-27T22:17:00.556Z,5.45
2017-11-27T22:19:27.373Z,4.33
2017-11-27T22:21:54.218Z,4.10
2017-11-27T22:24:21.044Z,3.60
2017-11-27T22:26:47.854Z,3.83
2017-11-27T22:29:14.652Z,3.42
2017-11-27T22:31:41.521Z,4.28
2017-11-27T22:34:08.358Z,4.30
2017-11-27T22:36:35.260Z,4.30
2017-11-27T22:39:02.093Z,3.90
2017-11-27T22:41:28.931Z,3.83
2017-11-27T22:43:55.727Z,3.90
2017-11-27T22:46:22.572Z,3.80
2017-11-27T22:48:49.373Z,4.13
2017-11-27T22:51:16.196Z,3.90
2017-11-27T22:53:43.028Z,3.50
2017-11-27T22:56:09.817Z,2.80
2017-11-27T22:58:36.717Z,2.70
2017-11-27T23:01:03.580Z,2.50
2017-11-27T23:03:30.433Z,2.30
2017-11-27T23:05:57.257Z,2.50
2017-11-27T23:08:24.334Z,2.60
2017-11-27T23:10:51.173Z,2.15
2017-11-27T23:13:17.972Z,2.70
2017-11-27T23:15:44.800Z,2.28
2017-11-27T23:18:11.595Z,2.70
2017-11-27T23:20:38.441Z,2.70
2017-11-27T23:23:05.273Z,2.50
2017-11-27T23:25:32.109Z,2.53
2017-11-27T23:27:58.903Z,2.20
2017-11-27T23:30:25.723Z,2.40
2017-11-27T23:32:52.520Z,2.50
2017-11-27T23:35:19.365Z,2.10
2017-11-27T23:37:46.196Z,2.22
2017-11-27T23:40:13.020Z,2.60
2017-11-27T23:42:40.148Z,2.30
2017-11-27T23:45:07.292Z,2.70
2017-11-27T23:47:34.079Z,3.00
2017-11-27T23:50:00.932Z,2.90
2017-11-27T23:52:27.751Z,2.75
2017-11-27T23:54:54.825Z,2.85
2017-11-27T23:57:21.694Z,2.97
2017-11-27T23:59:48.870Z,3.00
